sensor_id;sensor_type;location;lat;lon;timestamp;pressure;altitude;pressure_sealevel;temperature;humidity
47753;BME280;2038;51.728;6.674;2022-10-18T00:02:08;101900.47;;;17.76;100.00
47753;BME280;2038;51.728;6.674;2022-10-18T00:04:34;101897.00;;;17.76;100.00
47753;BME280;2038;51.728;6.674;2022-10-18T00:07:00;101885.47;;;17.86;100.00
47753;BME280;2038;51.728;6.674;2022-10-18T00:09:26;101892.38;;;17.70;100.00
47753;BME280;2038;51.728;6.674;2022-10-18T00:11:53;101887.69;;;17.63;100.00
47753;BME280;2038;51.728;6.674;2022-10-18T00:14:20;101891.16;;;17.64;100.00
47753;BME280;2038;51.728;6.674;2022-10-18T00:16:47;101894.53;;;17.63;100.00
47753;BME280;2038;51.728;6.674;2022-10-18T00:19:13;101888.41;;;17.61;100.00
47753;BME280;2038;51.728;6.674;2022-10-18T00:21:40;101877.13;;;17.59;100.00
47753;BME280;2038;51.728;6.674;2022-10-18T00:24:06;101876.13;;;17.57;100.00
47753;BME280;2038;51.728;6.674;2022-10-18T00:26:32;101877.03;;;17.57;100.00
47753;BME280;2038;51.728;6.674;2022-10-18T00:29:01;101870.06;;;17.56;100.00
47753;BME280;2038;51.728;6.674;2022-10-18T00:31:36;101882.09;;;17.56;100.00
47753;BME280;2038;51.728;6.674;2022-10-18T00:34:06;101878.50;;;17.54;100.00
47753;BME280;2038;51.728;6.674;2022-10-18T00:36:36;101874.34;;;17.56;100.00
47753;BME280;2038;51.728;6.674;2022-10-18T00:39:04;101882.78;;;17.53;100.00
47753;BME280;2038;51.728;6.674;2022-10-18T00:41:33;101871.50;;;17.51;100.00
47753;BME280;2038;51.728;6.674;2022-10-18T00:46:56;101875.88;;;17.52;100.00
47753;BME280;2038;51.728;6.674;2022-10-18T00:52:02;101880.84;;;17.49;100.00
47753;BME280;2038;51.728;6.674;2022-10-18T00:54:34;101878.97;;;17.47;100.00
47753;BME280;2038;51.728;6.674;2022-10-18T00:57:04;101880.94;;;17.51;100.00
47753;BME280;2038;51.728;6.674;2022-10-18T00:59:32;101879.09;;;17.48;100.00
47753;BME280;2038;51.728;6.674;2022-10-18T01:01:59;101883.59;;;17.52;100.00
47753;BME280;2038;51.728;6.674;2022-10-18T01:04:27;101885.44;;;17.55;100.00
47753;BME280;2038;51.728;6.674;2022-10-18T01:07:12;101868.22;;;17.68;100.00
47753;BME280;2038;51.728;6.674;2022-10-18T01:09:46;101874.97;;;17.66;100.00
47753;BME280;2038;51.728;6.674;2022-10-18T01:12:42;101864.91;;;17.56;100.00
47753;BME280;2038;51.728;6.674;2022-10-18T01:15:34;101867.59;;;17.58;100.00
47753;BME280;2038;51.728;6.674;2022-10-18T01:18:23;101862.00;;;17.50;100.00
47753;BME280;2038;51.728;6.674;2022-10-18T01:31:06;101856.56;;;17.46;100.00
47753;BME280;2038;51.728;6.674;2022-10-18T01:36:30;101862.38;;;17.42;100.00
47753;BME280;2038;51.728;6.674;2022-10-18T01:39:03;101863.09;;;17.39;100.00
47753;BME280;2038;51.728;6.674;2022-10-18T01:41:35;101861.41;;;17.40;100.00
47753;BME280;2038;51.728;6.674;2022-10-18T01:44:08;101864.00;;;17.40;100.00
47753;BME280;2038;51.728;6.674;2022-10-18T01:46:40;101860.53;;;17.39;100.00
47753;BME280;2038;51.728;6.674;2022-10-18T01:49:07;101857.84;;;17.38;100.00
47753;BME280;2038;51.728;6.674;2022-10-18T01:51:34;101862.13;;;17.37;100.00
47753;BME280;2038;51.728;6.674;2022-10-18T01:54:01;101870.56;;;17.35;100.00
47753;BME280;2038;51.728;6.674;2022-10-18T01:56:41;101861.41;;;17.40;100.00
47753;BME280;2038;51.728;6.674;2022-10-18T01:59:41;101862.84;;;17.35;100.00
47753;BME280;2038;51.728;6.674;2022-10-18T02:05:36;101858.41;;;17.32;100.00
47753;BME280;2038;51.728;6.674;2022-10-18T02:11:04;101858.47;;;17.33;100.00
47753;BME280;2038;51.728;6.674;2022-10-18T02:13:36;101860.00;;;17.30;100.00
47753;BME280;2038;51.728;6.674;2022-10-18T02:16:29;101852.38;;;17.31;100.00
47753;BME280;2038;51.728;6.674;2022-10-18T02:19:32;101856.53;;;17.29;100.00
47753;BME280;2038;51.728;6.674;2022-10-18T02:22:05;101860.09;;;17.31;100.00
47753;BME280;2038;51.728;6.674;2022-10-18T02:24:40;101865.09;;;17.28;100.00
47753;BME280;2038;51.728;6.674;2022-10-18T02:27:10;101861.31;;;17.38;100.00
47753;BME280;2038;51.728;6.674;2022-10-18T02:29:39;101858.69;;;17.37;100.00
47753;BME280;2038;51.728;6.674;2022-10-18T02:35:28;101857.69;;;17.35;100.00
47753;BME280;2038;51.728;6.674;2022-10-18T02:38:00;101852.38;;;17.31;100.00
47753;BME280;2038;51.728;6.674;2022-10-18T02:40:28;101860.72;;;17.27;100.00
47753;BME280;2038;51.728;6.674;2022-10-18T02:42:56;101859.75;;;17.25;100.00
47753;BME280;2038;51.728;6.674;2022-10-18T02:45:24;101860.38;;;17.21;100.00
47753;BME280;2038;51.728;6.674;2022-10-18T02:47:52;101861.88;;;17.18;100.00
47753;BME280;2038;51.728;6.674;2022-10-18T02:50:18;101856.09;;;17.22;100.00
47753;BME280;2038;51.728;6.674;2022-10-18T02:52:44;101860.38;;;17.21;100.00
47753;BME280;2038;51.728;6.674;2022-10-18T02:55:11;101859.69;;;17.24;100.00
47753;BME280;2038;51.728;6.674;2022-10-18T02:57:37;101866.34;;;17.20;100.00
47753;BME280;2038;51.728;6.674;2022-10-18T03:00:04;101862.88;;;17.20;100.00
47753;BME280;2038;51.728;6.674;2022-10-18T03:02:31;101866.41;;;17.22;100.00
47753;BME280;2038;51.728;6.674;2022-10-18T03:04:58;101860.56;;;17.24;100.00
47753;BME280;2038;51.728;6.674;2022-10-18T03:07:24;101858.06;;;17.26;100.00
47753;BME280;2038;51.728;6.674;2022-10-18T03:09:51;101867.25;;;17.21;100.00
47753;BME280;2038;51.728;6.674;2022-10-18T03:12:17;101865.28;;;17.17;100.00
47753;BME280;2038;51.728;6.674;2022-10-18T03:14:43;101861.81;;;17.16;100.00
47753;BME280;2038;51.728;6.674;2022-10-18T03:17:10;101863.94;;;17.23;100.00
47753;BME280;2038;51.728;6.674;2022-10-18T03:19:36;101855.84;;;17.17;100.00
47753;BME280;2038;51.728;6.674;2022-10-18T03:22:03;101861.63;;;17.28;100.00
47753;BME280;2038;51.728;6.674;2022-10-18T03:24:30;101861.78;;;17.31;100.00
47753;BME280;2038;51.728;6.674;2022-10-18T03:26:56;101855.66;;;17.29;100.00
47753;BME280;2038;51.728;6.674;2022-10-18T03:29:22;101863.00;;;17.38;100.00
47753;BME280;2038;51.728;6.674;2022-10-18T03:31:49;101859.38;;;17.34;100.00
47753;BME280;2038;51.728;6.674;2022-10-18T03:34:15;101855.28;;;17.38;100.00
47753;BME280;2038;51.728;6.674;2022-10-18T03:36:42;101861.16;;;17.35;100.00
47753;BME280;2038;51.728;6.674;2022-10-18T03:39:09;101862.78;;;17.33;100.00
47753;BME280;2038;51.728;6.674;2022-10-18T03:41:37;101860.34;;;17.36;100.00
47753;BME280;2038;51.728;6.674;2022-10-18T03:44:03;101864.53;;;17.34;100.00
47753;BME280;2038;51.728;6.674;2022-10-18T03:46:29;101864.19;;;17.28;100.00
47753;BME280;2038;51.728;6.674;2022-10-18T03:48:55;101867.03;;;17.33;100.00
47753;BME280;2038;51.728;6.674;2022-10-18T03:51:21;101869.69;;;17.34;100.00
47753;BME280;2038;51.728;6.674;2022-10-18T03:53:48;101860.00;;;17.30;100.00
47753;BME280;2038;51.728;6.674;2022-10-18T03:56:14;101868.81;;;17.19;100.00
47753;BME280;2038;51.728;6.674;2022-10-18T03:58:40;101868.41;;;17.11;100.00
47753;BME280;2038;51.728;6.674;2022-10-18T04:01:06;101865.28;;;17.17;100.00
47753;BME280;2038;51.728;6.674;2022-10-18T04:03:33;101853.81;;;17.12;100.00
47753;BME280;2038;51.728;6.674;2022-10-18T04:05:59;101855.41;;;17.10;100.00
47753;BME280;2038;51.728;6.674;2022-10-18T04:08:25;101862.97;;;17.07;100.00
47753;BME280;2038;51.728;6.674;2022-10-18T04:10:52;101860.56;;;17.10;100.00
47753;BME280;2038;51.728;6.674;2022-10-18T04:13:18;101866.59;;;17.10;100.00
47753;BME280;2038;51.728;6.674;2022-10-18T04:15:44;101873.66;;;17.13;100.00
47753;BME280;2038;51.728;6.674;2022-10-18T04:18:10;101872.75;;;17.12;100.00
47753;BME280;2038;51.728;6.674;2022-10-18T04:20:37;101876.13;;;17.11;100.00
47753;BME280;2038;51.728;6.674;2022-10-18T04:23:03;101872.81;;;17.14;100.00
47753;BME280;2038;51.728;6.674;2022-10-18T04:25:29;101885.06;;;17.18;100.00
47753;BME280;2038;51.728;6.674;2022-10-18T04:27:55;101882.06;;;17.10;100.00
47753;BME280;2038;51.728;6.674;2022-10-18T04:30:21;101883.16;;;16.99;100.00
47753;BME280;2038;51.728;6.674;2022-10-18T04:32:48;101874.19;;;16.93;100.00
47753;BME280;2038;51.728;6.674;2022-10-18T04:35:14;101871.41;;;16.90;100.00
47753;BME280;2038;51.728;6.674;2022-10-18T04:37:40;101879.59;;;16.82;100.00
47753;BME280;2038;51.728;6.674;2022-10-18T04:40:07;101875.44;;;16.84;100.00
47753;BME280;2038;51.728;6.674;2022-10-18T04:42:34;101877.75;;;16.80;100.00
47753;BME280;2038;51.728;6.674;2022-10-18T04:45:00;101870.97;;;16.82;100.00
47753;BME280;2038;51.728;6.674;2022-10-18T04:47:26;101872.03;;;16.85;100.00
47753;BME280;2038;51.728;6.674;2022-10-18T04:49:52;101880.19;;;16.93;100.00
47753;BME280;2038;51.728;6.674;2022-10-18T04:52:19;101871.63;;;16.93;100.00
47753;BME280;2038;51.728;6.674;2022-10-18T04:54:45;101869.38;;;16.99;100.00
47753;BME280;2038;51.728;6.674;2022-10-18T04:57:11;101877.28;;;17.02;100.00
47753;BME280;2038;51.728;6.674;2022-10-18T04:59:37;101886.94;;;17.06;100.00
47753;BME280;2038;51.728;6.674;2022-10-18T05:02:03;101888.63;;;17.05;100.00
47753;BME280;2038;51.728;6.674;2022-10-18T05:04:30;101881.00;;;17.07;100.00
47753;BME280;2038;51.728;6.674;2022-10-18T05:06:56;101874.16;;;17.07;100.00
47753;BME280;2038;51.728;6.674;2022-10-18T05:09:22;101867.59;;;17.12;100.00
47753;BME280;2038;51.728;6.674;2022-10-18T05:11:49;101858.81;;;17.09;100.00
47753;BME280;2038;51.728;6.674;2022-10-18T05:14:16;101858.81;;;17.09;100.00
47753;BME280;2038;51.728;6.674;2022-10-18T05:16:42;101865.19;;;17.15;100.00
47753;BME280;2038;51.728;6.674;2022-10-18T05:19:09;101870.44;;;17.17;100.00
47753;BME280;2038;51.728;6.674;2022-10-18T05:21:35;101869.13;;;17.09;100.00
47753;BME280;2038;51.728;6.674;2022-10-18T05:24:02;101870.97;;;17.11;100.00
47753;BME280;2038;51.728;6.674;2022-10-18T05:26:28;101872.81;;;17.14;100.00
47753;BME280;2038;51.728;6.674;2022-10-18T05:28:54;101870.97;;;17.11;100.00
47753;BME280;2038;51.728;6.674;2022-10-18T05:31:20;101880.28;;;17.09;100.00
47753;BME280;2038;51.728;6.674;2022-10-18T05:33:46;101888.00;;;17.09;100.00
47753;BME280;2038;51.728;6.674;2022-10-18T05:36:13;101892.19;;;17.07;100.00
47753;BME280;2038;51.728;6.674;2022-10-18T05:38:40;101885.38;;;17.08;100.00
47753;BME280;2038;51.728;6.674;2022-10-18T05:41:07;101889.63;;;17.07;100.00
47753;BME280;2038;51.728;6.674;2022-10-18T05:43:34;101894.16;;;17.11;100.00
47753;BME280;2038;51.728;6.674;2022-10-18T05:46:00;101887.22;;;17.10;100.00
47753;BME280;2038;51.728;6.674;2022-10-18T05:48:27;101883.22;;;17.15;100.00
47753;BME280;2038;51.728;6.674;2022-10-18T05:50:56;101883.56;;;17.21;100.00
47753;BME280;2038;51.728;6.674;2022-10-18T05:53:24;101873.81;;;17.16;100.00
47753;BME280;2038;51.728;6.674;2022-10-18T05:55:50;101880.13;;;17.21;100.00
47753;BME280;2038;51.728;6.674;2022-10-18T05:58:16;101883.38;;;17.18;100.00
47753;BME280;2038;51.728;6.674;2022-10-18T06:00:43;101873.81;;;17.16;100.00
47753;BME280;2038;51.728;6.674;2022-10-18T06:03:09;101880.13;;;17.21;100.00
47753;BME280;2038;51.728;6.674;2022-10-18T06:05:35;101882.22;;;17.13;100.00
47753;BME280;2038;51.728;6.674;2022-10-18T06:08:01;101884.81;;;17.28;100.00
47753;BME280;2038;51.728;6.674;2022-10-18T06:10:28;101884.81;;;17.28;100.00
47753;BME280;2038;51.728;6.674;2022-10-18T06:12:54;101891.91;;;17.17;100.00
47753;BME280;2038;51.728;6.674;2022-10-18T06:15:20;101902.22;;;17.17;100.00
47753;BME280;2038;51.728;6.674;2022-10-18T06:17:46;101895.84;;;17.11;100.00
47753;BME280;2038;51.728;6.674;2022-10-18T06:20:12;101905.53;;;17.00;100.00
47753;BME280;2038;51.728;6.674;2022-10-18T06:22:39;101914.41;;;17.05;100.00
47753;BME280;2038;51.728;6.674;2022-10-18T06:25:05;101912.19;;;17.11;100.00
47753;BME280;2038;51.728;6.674;2022-10-18T06:27:33;101918.31;;;16.99;100.00
47753;BME280;2038;51.728;6.674;2022-10-18T06:30:00;101920.78;;;16.97;100.00
47753;BME280;2038;51.728;6.674;2022-10-18T06:32:26;101929.69;;;17.02;100.00
47753;BME280;2038;51.728;6.674;2022-10-18T06:34:52;101930.84;;;17.07;100.00
47753;BME280;2038;51.728;6.674;2022-10-18T06:37:18;101928.44;;;17.10;100.00
47753;BME280;2038;51.728;6.674;2022-10-18T06:39:44;101942.13;;;17.09;100.00
47753;BME280;2038;51.728;6.674;2022-10-18T06:42:11;101934.31;;;17.08;100.00
47753;BME280;2038;51.728;6.674;2022-10-18T06:44:37;101949.03;;;17.10;100.00
47753;BME280;2038;51.728;6.674;2022-10-18T06:47:03;101942.31;;;17.12;100.00
47753;BME280;2038;51.728;6.674;2022-10-18T06:49:29;101939.91;;;17.15;100.00
47753;BME280;2038;51.728;6.674;2022-10-18T06:51:56;101938.28;;;17.17;100.00
47753;BME280;2038;51.728;6.674;2022-10-18T06:54:22;101944.34;;;17.18;100.00
47753;BME280;2038;51.728;6.674;2022-10-18T06:56:48;101943.44;;;17.17;100.00
47753;BME280;2038;51.728;6.674;2022-10-18T06:59:14;101942.59;;;17.17;100.00
47753;BME280;2038;51.728;6.674;2022-10-18T07:01:41;101946.13;;;17.19;100.00
47753;BME280;2038;51.728;6.674;2022-10-18T07:04:08;101957.84;;;17.14;100.00
47753;BME280;2038;51.728;6.674;2022-10-18T07:06:34;101959.00;;;17.19;100.00
47753;BME280;2038;51.728;6.674;2022-10-18T07:09:00;101966.84;;;17.20;100.00
47753;BME280;2038;51.728;6.674;2022-10-18T07:11:28;101971.25;;;17.23;100.00
47753;BME280;2038;51.728;6.674;2022-10-18T07:13:57;101973.22;;;17.27;100.00
47753;BME280;2038;51.728;6.674;2022-10-18T07:16:30;101981.06;;;17.28;100.00
47753;BME280;2038;51.728;6.674;2022-10-18T07:18:57;101984.53;;;17.29;100.00
47753;BME280;2038;51.728;6.674;2022-10-18T07:21:25;101985.31;;;17.28;100.00
47753;BME280;2038;51.728;6.674;2022-10-18T07:23:52;101987.50;;;17.22;100.00
47753;BME280;2038;51.728;6.674;2022-10-18T07:26:23;101995.34;;;17.23;100.00
47753;BME280;2038;51.728;6.674;2022-10-18T07:29:06;101995.44;;;17.25;100.00
47753;BME280;2038;51.728;6.674;2022-10-18T07:31:36;101992.59;;;17.35;100.00
47753;BME280;2038;51.728;6.674;2022-10-18T07:34:04;102001.03;;;17.33;100.00
47753;BME280;2038;51.728;6.674;2022-10-18T07:36:31;102015.00;;;17.36;100.00
47753;BME280;2038;51.728;6.674;2022-10-18T07:38:58;102019.34;;;17.37;100.00
47753;BME280;2038;51.728;6.674;2022-10-18T07:41:25;102016.06;;;17.40;100.00
47753;BME280;2038;51.728;6.674;2022-10-18T07:43:52;102018.25;;;17.33;100.00
47753;BME280;2038;51.728;6.674;2022-10-18T07:46:20;102025.03;;;17.31;100.00
47753;BME280;2038;51.728;6.674;2022-10-18T07:48:47;102022.56;;;17.33;100.00
47753;BME280;2038;51.728;6.674;2022-10-18T07:51:14;102026.00;;;17.33;100.00
47753;BME280;2038;51.728;6.674;2022-10-18T07:53:41;102019.34;;;17.37;100.00
47753;BME280;2038;51.728;6.674;2022-10-18T07:56:09;102027.09;;;17.37;100.00
47753;BME280;2038;51.728;6.674;2022-10-18T07:58:41;102028.84;;;17.38;100.00
47753;BME280;2038;51.728;6.674;2022-10-18T08:01:08;102032.69;;;17.45;100.00
47753;BME280;2038;51.728;6.674;2022-10-18T08:03:36;102040.03;;;17.53;100.00
47753;BME280;2038;51.728;6.674;2022-10-18T08:06:05;102050.84;;;17.61;100.00
47753;BME280;2038;51.728;6.674;2022-10-18T08:08:34;102045.50;;;17.58;100.00
47753;BME280;2038;51.728;6.674;2022-10-18T08:11:24;102045.13;;;17.52;100.00
47753;BME280;2038;51.728;6.674;2022-10-18T08:13:51;102057.38;;;17.56;100.00
47753;BME280;2038;51.728;6.674;2022-10-18T08:16:21;102060.88;;;17.56;100.00
47753;BME280;2038;51.728;6.674;2022-10-18T08:18:49;102062.66;;;17.57;100.00
47753;BME280;2038;51.728;6.674;2022-10-18T08:21:17;102060.75;;;17.55;100.00
47753;BME280;2038;51.728;6.674;2022-10-18T08:23:44;102061.28;;;17.49;100.00
47753;BME280;2038;51.728;6.674;2022-10-18T08:26:14;102068.06;;;17.47;100.00
47753;BME280;2038;51.728;6.674;2022-10-18T08:28:43;102068.66;;;17.43;100.00
47753;BME280;2038;51.728;6.674;2022-10-18T08:31:12;102064.59;;;17.47;100.00
47753;BME280;2038;51.728;6.674;2022-10-18T08:33:42;102068.16;;;17.49;100.00
47753;BME280;2038;51.728;6.674;2022-10-18T08:36:12;102071.97;;;17.41;100.00
47753;BME280;2038;51.728;6.674;2022-10-18T08:38:41;102080.22;;;17.50;100.00
47753;BME280;2038;51.728;6.674;2022-10-18T08:41:35;102081.50;;;17.56;100.00
47753;BME280;2038;51.728;6.674;2022-10-18T08:44:20;102086.66;;;17.56;100.00
47753;BME280;2038;51.728;6.674;2022-10-18T08:46:59;102084.16;;;17.58;100.00
47753;BME280;2038;51.728;6.674;2022-10-18T08:49:55;102090.25;;;17.73;100.00
47753;BME280;2038;51.728;6.674;2022-10-18T08:55:25;102087.00;;;17.92;100.00
47753;BME280;2038;51.728;6.674;2022-10-18T08:58:01;102082.91;;;17.95;100.00
47753;BME280;2038;51.728;6.674;2022-10-18T09:00:39;102082.09;;;18.11;100.00
47753;BME280;2038;51.728;6.674;2022-10-18T09:06:25;102081.44;;;18.15;100.00
47753;BME280;2038;51.728;6.674;2022-10-18T09:09:24;102083.72;;;18.09;100.00
47753;BME280;2038;51.728;6.674;2022-10-18T09:12:31;102087.63;;;18.02;100.00
47753;BME280;2038;51.728;6.674;2022-10-18T09:17:52;102089.94;;;17.98;100.00
47753;BME280;2038;51.728;6.674;2022-10-18T09:20:46;102086.38;;;17.96;100.00
47753;BME280;2038;51.728;6.674;2022-10-18T09:23:35;102088.44;;;18.01;100.00
47753;BME280;2038;51.728;6.674;2022-10-18T09:26:21;102090.56;;;17.94;100.00
47753;BME280;2038;51.728;6.674;2022-10-18T09:35:12;102095.66;;;17.92;100.00
47753;BME280;2038;51.728;6.674;2022-10-18T09:37:43;102100.97;;;17.95;100.00
47753;BME280;2038;51.728;6.674;2022-10-18T09:40:32;102104.63;;;17.99;100.00
47753;BME280;2038;51.728;6.674;2022-10-18T09:43:16;102105.59;;;18.01;100.00
47753;BME280;2038;51.728;6.674;2022-10-18T09:45:47;102105.59;;;18.01;100.00
47753;BME280;2038;51.728;6.674;2022-10-18T09:48:33;102098.94;;;18.04;100.00
47753;BME280;2038;51.728;6.674;2022-10-18T09:51:17;102107.00;;;18.10;100.00
47753;BME280;2038;51.728;6.674;2022-10-18T09:59:45;102114.91;;;18.13;100.00
47753;BME280;2038;51.728;6.674;2022-10-18T10:02:16;102118.31;;;18.12;100.00
47753;BME280;2038;51.728;6.674;2022-10-18T10:04:44;102114.09;;;18.14;100.00
47753;BME280;2038;51.728;6.674;2022-10-18T10:07:17;102118.16;;;18.09;100.00
47753;BME280;2038;51.728;6.674;2022-10-18T10:10:20;102117.69;;;18.16;100.00
47753;BME280;2038;51.728;6.674;2022-10-18T10:12:47;102118.81;;;18.21;100.00
47753;BME280;2038;51.728;6.674;2022-10-18T10:15:26;102114.00;;;18.28;100.00
47753;BME280;2038;51.728;6.674;2022-10-18T10:18:01;102113.09;;;18.27;100.00
47753;BME280;2038;51.728;6.674;2022-10-18T10:20:42;102127.88;;;18.30;100.00
47753;BME280;2038;51.728;6.674;2022-10-18T10:23:31;102121.91;;;18.31;100.00
47753;BME280;2038;51.728;6.674;2022-10-18T10:26:19;102113.47;;;18.33;100.00
47753;BME280;2038;51.728;6.674;2022-10-18T10:28:48;102115.78;;;18.29;100.00
47753;BME280;2038;51.728;6.674;2022-10-18T10:31:26;102130.81;;;18.36;100.00
47753;BME280;2038;51.728;6.674;2022-10-18T10:34:03;102125.75;;;18.37;100.00
47753;BME280;2038;51.728;6.674;2022-10-18T10:36:52;102124.84;;;18.37;100.00
47753;BME280;2038;51.728;6.674;2022-10-18T10:39:22;102128.97;;;18.33;100.00
47753;BME280;2038;51.728;6.674;2022-10-18T10:41:52;102130.81;;;18.36;100.00
47753;BME280;2038;51.728;6.674;2022-10-18T10:44:24;102127.34;;;18.35;100.00
47753;BME280;2038;51.728;6.674;2022-10-18T10:46:55;102120.31;;;18.33;100.00
47753;BME280;2038;51.728;6.674;2022-10-18T10:49:25;102124.84;;;18.37;100.00
47753;BME280;2038;51.728;6.674;2022-10-18T10:52:04;102125.81;;;18.39;100.00
47753;BME280;2038;51.728;6.674;2022-10-18T10:54:33;102128.75;;;18.45;100.00
47753;BME280;2038;51.728;6.674;2022-10-18T10:59:52;102128.41;;;18.53;100.00
47753;BME280;2038;51.728;6.674;2022-10-18T11:04:52;102125.50;;;18.63;100.00
47753;BME280;2038;51.728;6.674;2022-10-18T11:07:33;102127.28;;;18.64;100.00
47753;BME280;2038;51.728;6.674;2022-10-18T11:13:18;102137.94;;;18.70;100.00
47753;BME280;2038;51.728;6.674;2022-10-18T11:15:58;102139.16;;;18.61;100.00
47753;BME280;2038;51.728;6.674;2022-10-18T11:18:36;102136.06;;;18.52;100.00
47753;BME280;2038;51.728;6.674;2022-10-18T11:23:34;102125.47;;;18.33;100.00
47753;BME280;2038;51.728;6.674;2022-10-18T11:26:17;102132.59;;;18.37;100.00
47753;BME280;2038;51.728;6.674;2022-10-18T11:32:05;102116.97;;;18.50;100.00
47753;BME280;2038;51.728;6.674;2022-10-18T11:38:21;102129.81;;;18.79;100.00
47753;BME280;2038;51.728;6.674;2022-10-18T11:41:04;102134.81;;;18.76;100.00
47753;BME280;2038;51.728;6.674;2022-10-18T11:43:54;102129.16;;;18.83;100.00
47753;BME280;2038;51.728;6.674;2022-10-18T11:52:59;102117.56;;;18.91;100.00
47753;BME280;2038;51.728;6.674;2022-10-18T11:56:01;102123.53;;;18.90;100.00
47753;BME280;2038;51.728;6.674;2022-10-18T11:58:55;102125.41;;;18.93;98.13
47753;BME280;2038;51.728;6.674;2022-10-18T12:04:48;102125.94;;;18.87;99.13
47753;BME280;2038;51.728;6.674;2022-10-18T12:07:20;102119.00;;;18.86;99.40
47753;BME280;2038;51.728;6.674;2022-10-18T12:09:50;102117.00;;;18.81;97.74
47753;BME280;2038;51.728;6.674;2022-10-18T12:12:27;102121.75;;;18.89;100.00
47753;BME280;2038;51.728;6.674;2022-10-18T12:15:04;102119.59;;;18.97;99.57
47753;BME280;2038;51.728;6.674;2022-10-18T12:17:44;102115.31;;;18.97;99.95
47753;BME280;2038;51.728;6.674;2022-10-18T12:23:11;102117.00;;;18.97;97.79
47753;BME280;2038;51.728;6.674;2022-10-18T12:25:49;102117.16;;;19.16;95.91
47753;BME280;2038;51.728;6.674;2022-10-18T12:33:54;102124.56;;;19.26;97.57
47753;BME280;2038;51.728;6.674;2022-10-18T12:36:45;102119.63;;;19.31;96.39
47753;BME280;2038;51.728;6.674;2022-10-18T12:39:33;102117.47;;;19.22;96.18
47753;BME280;2038;51.728;6.674;2022-10-18T12:42:17;102121.78;;;19.22;98.73
47753;BME280;2038;51.728;6.674;2022-10-18T12:44:47;102113.78;;;19.17;95.78
47753;BME280;2038;51.728;6.674;2022-10-18T12:47:24;102116.59;;;19.22;94.44
47753;BME280;2038;51.728;6.674;2022-10-18T12:50:03;102114.41;;;19.13;95.47
47753;BME280;2038;51.728;6.674;2022-10-18T12:53:19;102121.19;;;19.27;93.89
47753;BME280;2038;51.728;6.674;2022-10-18T12:55:55;102122.97;;;19.28;92.49
47753;BME280;2038;51.728;6.674;2022-10-18T13:09:36;102106.97;;;19.19;96.11
47753;BME280;2038;51.728;6.674;2022-10-18T13:17:53;102097.66;;;19.39;92.99
47753;BME280;2038;51.728;6.674;2022-10-18T13:27:16;102095.97;;;19.39;89.93
47753;BME280;2038;51.728;6.674;2022-10-18T13:36:22;102094.34;;;19.41;90.67
47753;BME280;2038;51.728;6.674;2022-10-18T13:41:31;102105.03;;;19.47;88.89
47753;BME280;2038;51.728;6.674;2022-10-18T13:49:59;102106.56;;;19.28;89.02
47753;BME280;2038;51.728;6.674;2022-10-18T14:06:45;102107.63;;;19.47;87.31
47753;BME280;2038;51.728;6.674;2022-10-18T14:09:19;102115.13;;;19.43;84.79
47753;BME280;2038;51.728;6.674;2022-10-18T14:15:18;102111.75;;;18.95;84.03
47753;BME280;2038;51.728;6.674;2022-10-18T14:17:54;102106.00;;;18.85;85.99
47753;BME280;2038;51.728;6.674;2022-10-18T14:20:35;102104.06;;;18.64;87.19
47753;BME280;2038;51.728;6.674;2022-10-18T14:23:11;102103.97;;;18.63;87.62
47753;BME280;2038;51.728;6.674;2022-10-18T14:25:45;102098.09;;;18.65;88.01
47753;BME280;2038;51.728;6.674;2022-10-18T14:28:21;102105.25;;;18.71;88.47
47753;BME280;2038;51.728;6.674;2022-10-18T14:31:03;102106.56;;;18.79;89.70
47753;BME280;2038;51.728;6.674;2022-10-18T14:33:36;102106.97;;;18.87;89.08
47753;BME280;2038;51.728;6.674;2022-10-18T14:36:07;102112.47;;;18.93;86.73
47753;BME280;2038;51.728;6.674;2022-10-18T14:38:49;102108.59;;;19.01;87.84
47753;BME280;2038;51.728;6.674;2022-10-18T14:41:29;102106.56;;;19.11;88.66
47753;BME280;2038;51.728;6.674;2022-10-18T14:44:31;102107.47;;;19.12;87.12
47753;BME280;2038;51.728;6.674;2022-10-18T14:47:00;102105.63;;;19.26;85.06
47753;BME280;2038;51.728;6.674;2022-10-18T14:49:29;102109.53;;;19.35;87.76
47753;BME280;2038;51.728;6.674;2022-10-18T14:51:58;102103.59;;;19.20;85.65
47753;BME280;2038;51.728;6.674;2022-10-18T14:54:29;102112.38;;;19.24;86.11
47753;BME280;2038;51.728;6.674;2022-10-18T14:56:59;102117.66;;;19.25;86.76
47753;BME280;2038;51.728;6.674;2022-10-18T14:59:29;102109.91;;;19.25;86.75
47753;BME280;2038;51.728;6.674;2022-10-18T15:02:01;102107.63;;;19.15;86.07
47753;BME280;2038;51.728;6.674;2022-10-18T15:04:30;102104.38;;;19.03;85.07
47753;BME280;2038;51.728;6.674;2022-10-18T15:07:02;102112.28;;;19.06;85.99
47753;BME280;2038;51.728;6.674;2022-10-18T15:09:33;102112.38;;;19.07;86.17
47753;BME280;2038;51.728;6.674;2022-10-18T15:12:05;102109.00;;;19.08;86.61
47753;BME280;2038;51.728;6.674;2022-10-18T15:14:33;102109.50;;;19.01;85.58
47753;BME280;2038;51.728;6.674;2022-10-18T15:17:10;102104.00;;;18.95;87.49
47753;BME280;2038;51.728;6.674;2022-10-18T15:19:53;102109.06;;;18.94;86.82
47753;BME280;2038;51.728;6.674;2022-10-18T15:22:25;102113.44;;;18.95;87.30
47753;BME280;2038;51.728;6.674;2022-10-18T15:25:38;102117.72;;;18.94;85.95
47753;BME280;2038;51.728;6.674;2022-10-18T15:28:00;102123.38;;;19.03;88.32
47753;BME280;2038;51.728;6.674;2022-10-18T15:30:29;102117.16;;;19.00;87.33
47753;BME280;2038;51.728;6.674;2022-10-18T15:33:04;102115.34;;;18.83;85.79
47753;BME280;2038;51.728;6.674;2022-10-18T15:35:36;102114.06;;;18.75;86.33
47753;BME280;2038;51.728;6.674;2022-10-18T15:38:15;102111.06;;;18.67;86.67
47753;BME280;2038;51.728;6.674;2022-10-18T15:40:49;102113.88;;;18.55;85.56